Time,TemperatureF,DewpointF,PressureIn,WindDirection,WindDirectionDegrees,WindSpeedMPH,WindSpeedGustMPH,Humidity,HourlyPrecipIn,Conditions,Clouds,dailyrainin,SoftwareType,DateUTC
2013-06-16 00:00:00,58.0,-99.9,29.84,SSW,202,9.0,10.0,-999,-99.99,,,-99.99,,2013-06-16 04:00:00,
2013-06-16 00:43:00,58.0,-99.9,29.84,SSW,202,9.0,10.0,-999,-99.99,,,-99.99,,2013-06-16 04:43:00,
2013-06-16 00:53:00,58.0,-99.9,29.84,SSW,202,9.0,10.0,-999,-99.99,,,-99.99,,2013-06-16 04:53:00,
2013-06-16 01:00:00,58.0,-99.9,29.84,SSW,206,8.0,10.0,-999,-99.99,,,-99.99,,2013-06-16 05:00:00,
2013-06-16 01:43:00,58.0,-99.9,29.84,SSW,206,8.0,10.0,-999,-99.99,,,-99.99,,2013-06-16 05:43:00,
2013-06-16 01:53:00,58.0,-99.9,29.84,SSW,206,8.0,10.0,-999,-99.99,,,-99.99,,2013-06-16 05:53:00,
2013-06-16 02:00:00,57.0,-99.9,29.83,WSW,251,9.0,10.0,-999,-99.99,,,-99.99,,2013-06-16 06:00:00,
2013-06-16 02:43:00,57.0,-99.9,29.83,WSW,251,9.0,10.0,-999,-99.99,,,-99.99,,2013-06-16 06:43:00,
2013-06-16 02:52:00,57.0,-99.9,29.83,WSW,251,9.0,10.0,-999,-99.99,,,-99.99,,2013-06-16 06:52:00,
2013-06-16 03:30:00,57.0,-99.9,29.83,WSW,240,10.0,11.0,-999,-99.99,,,-99.99,,2013-06-16 07:30:00,
2013-06-16 04:00:00,57.0,-99.9,29.83,SW,236,8.0,10.0,-999,-99.99,,,-99.99,,2013-06-16 08:00:00,
2013-06-16 04:02:00,57.0,-99.9,29.83,WSW,240,10.0,11.0,-999,-99.99,,,-99.99,,2013-06-16 08:02:00,
2013-06-16 04:12:00,57.0,-99.9,29.83,WSW,240,10.0,11.0,-999,-99.99,,,-99.99,,2013-06-16 08:12:00,
2013-06-16 04:22:00,57.0,-99.9,29.83,WSW,240,10.0,11.0,-999,-99.99,,,-99.99,,2013-06-16 08:22:00,
2013-06-16 04:44:00,57.0,-99.9,29.83,SW,236,8.0,10.0,-999,-99.99,,,-99.99,,2013-06-16 08:44:00,
2013-06-16 04:54:00,57.0,-99.9,29.83,SW,236,8.0,10.0,-999,-99.99,,,-99.99,,2013-06-16 08:54:00,
2013-06-16 05:00:00,57.0,-99.9,29.83,SW,236,9.0,10.0,-999,-99.99,,,-99.99,,2013-06-16 09:00:00,
2013-06-16 05:43:00,57.0,-99.9,29.83,SW,236,9.0,10.0,-999,-99.99,,,-99.99,,2013-06-16 09:43:00,
2013-06-16 05:52:00,57.0,-99.9,29.83,SW,236,9.0,10.0,-999,-99.99,,,-99.99,,2013-06-16 09:52:00,
2013-06-16 06:00:00,56.0,-99.9,29.84,WSW,247,6.0,7.0,-999,-99.99,,,-99.99,,2013-06-16 10:00:00,
2013-06-16 06:43:00,56.0,-99.9,29.84,WSW,247,6.0,7.0,-999,-99.99,,,-99.99,,2013-06-16 10:43:00,
2013-06-16 06:54:00,56.0,-99.9,29.84,WSW,247,6.0,7.0,-999,-99.99,,,-99.99,,2013-06-16 10:54:00,
2013-06-16 07:00:00,57.0,-99.9,29.85,SW,217,6.0,7.0,-999,-99.99,,,-99.99,,2013-06-16 11:00:00,
2013-06-16 07:43:00,57.0,-99.9,29.85,SW,217,6.0,7.0,-999,-99.99,,,-99.99,,2013-06-16 11:43:00,
2013-06-16 07:53:00,57.0,-99.9,29.85,SW,217,6.0,7.0,-999,-99.99,,,-99.99,,2013-06-16 11:53:00,
2013-06-16 08:00:00,60.0,-99.9,29.85,South,169,2.0,3.0,-999,-99.99,,,-99.99,,2013-06-16 12:00:00,
2013-06-16 08:43:00,60.0,-99.9,29.85,South,169,2.0,3.0,-999,-99.99,,,-99.99,,2013-06-16 12:43:00,
2013-06-16 08:53:00,60.0,-99.9,29.85,South,169,2.0,3.0,-999,-99.99,,,-99.99,,2013-06-16 12:53:00,
2013-06-16 09:10:00,63.0,-99.9,29.86,SE,141,6.0,10.0,-999,-99.99,,,-99.99,,2013-06-16 13:10:00,
2013-06-16 10:02:00,63.0,-99.9,29.86,SE,141,6.0,10.0,-999,-99.99,,,-99.99,,2013-06-16 14:02:00,
2013-06-16 16:00:00,59.0,-99.9,29.75,SSW,195,10.0,11.0,-999,-99.99,,,-99.99,,2013-06-16 20:00:00,
2013-06-16 16:02:00,59.0,-99.9,29.77,South,188,11.0,13.0,-999,-99.99,,,-99.99,,2013-06-16 20:02:00,
2013-06-16 18:00:00,58.0,-99.9,29.73,SW,216,6.0,7.0,-999,-99.99,,,-99.99,,2013-06-16 22:00:00,
2013-06-16 22:00:00,58.0,-99.9,29.71,SW,215,2.0,3.0,-999,-99.99,,,-99.99,,2013-06-17 02:00:00,
2013-06-16 23:00:00,58.0,-99.9,29.70,SW,227,4.0,5.0,-999,-99.99,,,-99.99,,2013-06-17 03:00:00,